Salas De Los Infantes, Spain
Current Conditions -  °F | °C
As of 6:00 AM on Tuesday 27 Jan 2015 (Local Time) from LELO Reporting Station
Broken Clouds Broken Clouds  
Wind Chill: 38°   Ceiling: 3000
Heat Index: 45°   Visibility: 6mi
Dew Point: 41°   Wind: 14mph
Humidity: 87%   Direction: 280°W
Pressure: 30.42"   Gusts: NA
Location:  42.02°N, 3.29°W
Report Text: LELO 270500Z 28012KT 9999 BKN030 07/05 Q1030
Loading
Personal Weather Stations






























Interactive Weather Map New forecast layout! Learn more

10-Day Weather Forecast

Advertisements
Track Severe Weather on mobile